createdAt,value
2023-06-08T05:01:11.517Z,25.00
2023-06-08T05:02:11.476Z,25.00
2023-06-08T05:03:11.614Z,25.00
2023-06-08T05:04:11.688Z,25.00
2023-06-08T05:05:11.548Z,25.00
2023-06-08T05:06:11.602Z,25.00
2023-06-08T05:07:11.620Z,0.00
2023-06-08T05:08:11.699Z,0.00
2023-06-08T05:09:11.743Z,0.00
2023-06-08T05:10:11.767Z,0.00
2023-06-08T05:11:11.778Z,0.00
2023-06-08T05:12:11.787Z,0.00
2023-06-08T05:13:11.829Z,0.00
2023-06-08T05:14:11.857Z,0.00
2023-06-08T05:15:11.839Z,0.00
2023-06-08T05:16:11.863Z,0.00
2023-06-08T05:17:11.855Z,0.00
2023-06-08T05:18:11.937Z,0.00
2023-06-08T05:19:11.844Z,0.00
2023-06-08T05:20:11.816Z,0.00
2023-06-08T05:21:11.824Z,0.00
2023-06-08T05:22:11.897Z,0.00
2023-06-08T05:23:11.870Z,0.00
2023-06-08T05:24:12.131Z,0.00
2023-06-08T05:25:11.975Z,0.00
2023-06-08T05:26:11.971Z,0.00
2023-06-08T05:27:11.984Z,0.00
2023-06-08T05:28:12.029Z,0.00
2023-06-08T05:29:11.972Z,15.37
2023-06-08T05:30:12.024Z,27.07
2023-06-08T05:31:12.041Z,25.00
2023-06-08T05:32:12.020Z,25.48
2023-06-08T05:33:12.062Z,27.88
2023-06-08T05:34:12.070Z,25.23
2023-06-08T05:35:12.119Z,27.14
2023-06-08T05:36:12.107Z,29.94
2023-06-08T05:37:12.076Z,26.56
2023-06-08T05:38:12.172Z,26.90
2023-06-08T05:39:12.162Z,25.00
2023-06-08T05:40:12.166Z,27.90
2023-06-08T05:41:12.200Z,31.06
2023-06-08T05:42:12.203Z,28.33
2023-06-08T05:43:12.373Z,25.00
2023-06-08T05:44:12.302Z,25.30
2023-06-08T05:45:12.325Z,25.74
2023-06-08T05:46:12.321Z,25.34
2023-06-08T05:47:12.933Z,25.09
2023-06-08T05:48:12.471Z,33.65
2023-06-08T05:49:12.471Z,27.16
2023-06-08T05:50:12.384Z,28.16
2023-06-08T05:51:12.425Z,31.34
2023-06-08T05:52:12.421Z,28.44
2023-06-08T05:53:12.454Z,26.36
2023-06-08T05:54:12.494Z,25.00
2023-06-08T05:55:13.254Z,27.26
2023-06-08T05:56:12.481Z,30.08
2023-06-08T05:57:12.504Z,31.38
2023-06-08T05:58:12.535Z,27.04
2023-06-08T05:59:12.539Z,25.71
2023-06-08T06:00:12.557Z,27.56
2023-06-08T06:01:13.039Z,27.62
2023-06-08T06:02:12.544Z,27.01
2023-06-08T06:03:12.608Z,28.95
2023-06-08T06:04:22.616Z,28.20
2023-06-08T06:05:13.604Z,28.61
2023-06-08T06:06:12.700Z,29.35
2023-06-08T06:07:12.583Z,31.16
2023-06-08T06:08:12.589Z,30.75
2023-06-08T06:09:12.567Z,30.00
2023-06-08T06:10:12.527Z,25.00
2023-06-08T06:11:12.576Z,29.67
2023-06-08T06:12:12.546Z,29.32
2023-06-08T06:13:12.595Z,27.21
2023-06-08T06:14:12.552Z,26.58
2023-06-08T06:15:12.541Z,27.02
2023-06-08T06:16:15.716Z,28.96
2023-06-08T06:17:12.680Z,29.18
2023-06-08T06:18:12.559Z,29.81
2023-06-08T06:19:12.516Z,25.10
2023-06-08T06:20:12.494Z,21.76
2023-06-08T06:21:12.496Z,25.48
2023-06-08T06:22:12.505Z,25.94
2023-06-08T06:23:12.476Z,25.21
2023-06-08T06:24:12.543Z,25.00
2023-06-08T06:25:12.432Z,35.15
2023-06-08T06:26:12.439Z,27.24
2023-06-08T06:27:12.426Z,27.92
2023-06-08T06:28:12.429Z,26.88
2023-06-08T06:29:12.438Z,28.49
2023-06-08T06:30:12.466Z,29.19
2023-06-08T06:31:12.413Z,30.44
2023-06-08T06:32:12.424Z,31.10
2023-06-08T06:33:12.439Z,32.22
2023-06-08T06:34:12.441Z,29.74
2023-06-08T06:35:12.415Z,30.18
2023-06-08T06:36:12.404Z,31.17
2023-06-08T06:37:12.405Z,25.10
2023-06-08T06:38:12.363Z,27.97
2023-06-08T06:39:12.372Z,25.00
2023-06-08T06:40:12.390Z,33.10
2023-06-08T06:41:12.339Z,27.51
2023-06-08T06:42:12.329Z,28.25
2023-06-08T06:43:12.341Z,26.23
2023-06-08T06:44:12.337Z,35.50
2023-06-08T06:45:12.334Z,30.49
2023-06-08T06:46:12.388Z,26.18
2023-06-08T06:47:12.329Z,31.77
2023-06-08T06:48:12.282Z,34.69
2023-06-08T06:49:12.379Z,38.69
2023-06-08T06:50:12.329Z,36.65
2023-06-08T06:51:12.289Z,28.49
2023-06-08T06:52:12.299Z,35.92
2023-06-08T06:53:12.237Z,34.75
2023-06-08T06:54:12.257Z,32.56
2023-06-08T06:55:12.259Z,28.69
2023-06-08T06:56:12.278Z,28.45
2023-06-08T06:57:12.227Z,30.87
2023-06-08T06:58:12.267Z,32.80
2023-06-08T06:59:12.276Z,31.64
2023-06-08T07:00:12.253Z,42.72
2023-06-08T07:01:12.267Z,27.03
2023-06-08T07:02:12.191Z,28.75
2023-06-08T07:03:12.278Z,31.05
2023-06-08T07:04:12.371Z,30.49
2023-06-08T07:05:12.417Z,26.72
2023-06-08T07:06:12.341Z,29.99
2023-06-08T07:07:12.382Z,30.03
2023-06-08T07:08:12.414Z,40.11
2023-06-08T07:09:12.471Z,31.58
2023-06-08T07:10:12.490Z,34.77
2023-06-08T07:11:12.495Z,31.46
2023-06-08T07:12:16.473Z,39.64
2023-06-08T07:13:12.570Z,39.65
2023-06-08T07:14:12.574Z,36.92
2023-06-08T07:15:12.565Z,39.64
2023-06-08T07:16:12.549Z,33.42
2023-06-08T07:17:12.514Z,35.16
2023-06-08T07:18:12.553Z,41.04
2023-06-08T07:19:12.512Z,38.95
2023-06-08T07:20:12.497Z,36.57
2023-06-08T07:21:12.466Z,31.85
2023-06-08T07:22:35.662Z,31.49
2023-06-08T07:23:24.843Z,31.67
2023-06-08T07:24:50.208Z,31.98
2023-06-08T07:25:45.111Z,32.11
2023-06-08T07:26:26.357Z,32.24
2023-06-08T07:27:13.579Z,32.33
2023-06-08T07:28:12.435Z,34.63
2023-06-08T07:29:12.424Z,36.90
2023-06-08T07:30:12.431Z,39.79
2023-06-08T07:31:12.485Z,35.09
2023-06-08T07:32:12.417Z,34.21
2023-06-08T07:33:12.426Z,27.60
2023-06-08T07:34:12.428Z,34.86
2023-06-08T07:35:12.401Z,32.40
2023-06-08T07:36:12.386Z,33.89
2023-06-08T07:37:12.432Z,30.36
2023-06-08T07:38:12.393Z,36.86
2023-06-08T07:39:12.341Z,25.99
2023-06-08T07:40:12.393Z,34.38
2023-06-08T07:41:12.356Z,33.62
2023-06-08T07:42:12.320Z,28.30
2023-06-08T07:43:12.323Z,25.55
2023-06-08T07:44:12.344Z,28.68
2023-06-08T07:45:12.361Z,27.86
2023-06-08T07:46:12.298Z,29.52
2023-06-08T07:47:12.355Z,26.59
2023-06-08T07:48:12.323Z,47.12
2023-06-08T07:49:12.260Z,65.33
2023-06-08T07:50:12.438Z,71.18
2023-06-08T07:51:12.361Z,68.55
2023-06-08T07:52:12.460Z,74.13
2023-06-08T07:53:12.458Z,77.82
2023-06-08T07:54:12.554Z,84.04
2023-06-08T07:55:12.657Z,95.49
2023-06-08T07:56:12.649Z,95.99
2023-06-08T07:57:12.760Z,89.94
2023-06-08T07:58:12.764Z,84.13
2023-06-08T07:59:12.784Z,89.72
2023-06-08T08:00:12.867Z,103.72
2023-06-08T08:01:12.912Z,113.86
2023-06-08T08:02:13.052Z,112.47
2023-06-08T08:03:13.037Z,102.43
2023-06-08T08:04:13.224Z,110.34
2023-06-08T08:05:13.101Z,116.86
2023-06-08T08:06:13.173Z,115.55
2023-06-08T08:07:13.210Z,115.81
2023-06-08T08:08:13.233Z,112.80
2023-06-08T08:09:13.268Z,118.09
2023-06-08T08:10:13.317Z,131.10
2023-06-08T08:11:13.399Z,137.07
2023-06-08T08:12:13.461Z,135.62
2023-06-08T08:13:13.484Z,135.52
2023-06-08T08:14:13.530Z,135.76
2023-06-08T08:15:13.589Z,137.06
2023-06-08T08:16:13.628Z,133.39
2023-06-08T08:17:13.709Z,138.50
2023-06-08T08:18:13.722Z,142.97
2023-06-08T08:19:13.775Z,149.98
2023-06-08T08:20:13.791Z,153.09
2023-06-08T08:21:13.863Z,154.43
2023-06-08T08:22:15.418Z,153.48
2023-06-08T08:23:13.918Z,168.41
2023-06-08T08:24:14.060Z,161.40
2023-06-08T08:25:14.585Z,164.23
2023-06-08T08:26:14.054Z,162.49
2023-06-08T08:27:15.709Z,167.77
2023-06-08T08:28:14.075Z,164.22
2023-06-08T08:29:14.101Z,166.44
2023-06-08T08:30:14.093Z,165.51
2023-06-08T08:31:14.081Z,168.21
2023-06-08T08:32:14.073Z,167.31
2023-06-08T08:33:17.291Z,172.05
2023-06-08T08:34:14.074Z,172.36
2023-06-08T08:35:14.059Z,172.53
2023-06-08T08:36:14.037Z,172.38
2023-06-08T08:37:14.072Z,175.37
2023-06-08T08:38:14.016Z,180.18
2023-06-08T08:39:13.999Z,176.11
2023-06-08T08:40:14.003Z,175.85
2023-06-08T08:41:13.980Z,182.65
2023-06-08T08:42:14.067Z,181.70
2023-06-08T08:43:13.988Z,182.97
2023-06-08T08:44:14.029Z,185.72
2023-06-08T08:45:13.977Z,182.40
2023-06-08T08:46:13.979Z,181.93
2023-06-08T08:47:13.969Z,185.45
2023-06-08T08:48:14.050Z,188.15
2023-06-08T08:49:14.002Z,185.24
2023-06-08T08:50:13.957Z,193.01
2023-06-08T08:51:14.074Z,188.28
2023-06-08T08:52:13.926Z,190.66
2023-06-08T08:53:13.891Z,193.70
2023-06-08T08:54:13.950Z,195.76
2023-06-08T08:55:25.972Z,192.84
2023-06-08T08:56:14.970Z,193.19
2023-06-08T08:57:13.930Z,193.63
2023-06-08T08:58:13.889Z,194.19
2023-06-08T08:59:13.922Z,197.44
2023-06-08T09:00:13.859Z,197.59
2023-06-08T09:01:13.869Z,197.38
2023-06-08T09:02:13.924Z,198.24
2023-06-08T09:03:13.928Z,198.12
2023-06-08T09:04:13.957Z,198.32
2023-06-08T09:05:13.841Z,198.10
2023-06-08T09:06:13.806Z,199.72
2023-06-08T09:07:13.836Z,200.78
2023-06-08T09:08:13.833Z,202.06
2023-06-08T09:09:13.955Z,200.82
2023-06-08T09:10:13.954Z,204.01
2023-06-08T09:11:13.939Z,202.00
2023-06-08T09:12:14.113Z,203.03
2023-06-08T09:13:14.069Z,202.29
2023-06-08T09:14:14.097Z,202.40
2023-06-08T09:15:14.151Z,201.62
2023-06-08T09:16:14.178Z,202.45
2023-06-08T09:17:14.226Z,205.72
2023-06-08T09:18:14.336Z,202.44
2023-06-08T09:19:14.295Z,203.79
2023-06-08T09:20:14.307Z,201.27
2023-06-08T09:21:14.401Z,205.73
2023-06-08T09:22:14.402Z,203.51
2023-06-08T09:23:14.611Z,204.95
2023-06-08T09:24:14.484Z,204.02
2023-06-08T09:25:14.490Z,204.42
2023-06-08T09:26:14.509Z,207.05
2023-06-08T09:27:14.539Z,202.13
2023-06-08T09:28:14.618Z,207.22
2023-06-08T09:29:14.660Z,206.05
2023-06-08T09:30:14.690Z,203.73
2023-06-08T09:31:14.751Z,204.00
2023-06-08T09:32:14.836Z,204.45
2023-06-08T09:33:14.907Z,206.55
2023-06-08T09:34:14.816Z,201.49
2023-06-08T09:35:14.852Z,203.43
2023-06-08T09:36:14.892Z,208.01
2023-06-08T09:37:14.919Z,203.85
2023-06-08T09:38:14.990Z,205.89
2023-06-08T09:39:15.075Z,204.45
2023-06-08T09:40:15.050Z,207.89
2023-06-08T09:41:15.075Z,207.27
2023-06-08T09:42:15.124Z,204.57
2023-06-08T09:43:15.181Z,204.40
2023-06-08T09:44:15.195Z,210.34
2023-06-08T09:45:15.253Z,206.27
2023-06-08T09:46:15.309Z,210.11
2023-06-08T09:47:15.268Z,207.31
2023-06-08T09:48:15.306Z,206.49
2023-06-08T09:49:15.403Z,204.98
2023-06-08T09:50:15.484Z,206.21
2023-06-08T09:51:15.458Z,204.98
2023-06-08T09:52:15.442Z,208.69
2023-06-08T09:53:15.479Z,208.81
2023-06-08T09:54:15.621Z,207.30
2023-06-08T09:55:15.558Z,205.12
2023-06-08T09:56:15.603Z,205.38
2023-06-08T09:57:15.640Z,204.97
2023-06-08T09:58:15.686Z,206.43
2023-06-08T09:59:15.731Z,205.61
2023-06-08T10:00:15.955Z,209.05
2023-06-08T10:01:15.812Z,207.01
2023-06-08T10:02:15.858Z,208.69
2023-06-08T10:03:16.045Z,206.48
2023-06-08T10:04:15.949Z,205.62
2023-06-08T10:05:15.903Z,210.18
2023-06-08T10:06:15.952Z,206.76
2023-06-08T10:07:15.995Z,205.65
2023-06-08T10:08:16.015Z,204.78
2023-06-08T10:09:16.089Z,203.26
2023-06-08T10:10:16.100Z,206.57
2023-06-08T10:11:16.133Z,207.57
2023-06-08T10:12:16.132Z,205.31
2023-06-08T10:13:16.187Z,205.35
2023-06-08T10:14:16.231Z,204.34
2023-06-08T10:15:16.333Z,202.41
2023-06-08T10:16:16.323Z,201.06
2023-06-08T10:17:16.426Z,200.41
2023-06-08T10:18:16.366Z,201.88
2023-06-08T10:19:16.375Z,203.57
2023-06-08T10:20:16.486Z,201.19
2023-06-08T10:21:16.475Z,202.35
2023-06-08T10:22:16.497Z,203.41
2023-06-08T10:23:16.516Z,199.33
2023-06-08T10:24:16.601Z,203.85
2023-06-08T10:25:16.858Z,201.30
2023-06-08T10:26:16.699Z,198.82
2023-06-08T10:27:16.632Z,202.27
2023-06-08T10:28:19.640Z,204.23
2023-06-08T10:29:22.645Z,203.28
2023-06-08T10:30:17.700Z,203.67
2023-06-08T10:31:16.669Z,204.37
2023-06-08T10:32:16.691Z,204.38
2023-06-08T10:33:16.681Z,205.89
2023-06-08T10:34:16.634Z,207.03
2023-06-08T10:35:16.651Z,205.83
2023-06-08T10:36:16.613Z,203.15
2023-06-08T10:37:16.627Z,203.42
2023-06-08T10:38:16.589Z,200.51
2023-06-08T10:39:16.591Z,200.69
2023-06-08T10:40:16.597Z,204.28
2023-06-08T10:41:16.583Z,204.35
2023-06-08T10:42:16.601Z,202.81
2023-06-08T10:43:38.632Z,202.97
2023-06-08T10:44:17.577Z,203.09
2023-06-08T10:45:16.674Z,199.62
2023-06-08T10:46:16.642Z,203.40
2023-06-08T10:47:16.651Z,199.61
2023-06-08T10:48:16.575Z,202.79
2023-06-08T10:49:16.522Z,199.94
2023-06-08T10:50:16.584Z,203.38
2023-06-08T10:51:16.572Z,200.59
2023-06-08T10:52:16.579Z,203.63
2023-06-08T10:53:16.505Z,200.05
2023-06-08T10:54:16.526Z,201.89
2023-06-08T10:55:16.552Z,202.52
2023-06-08T10:56:16.513Z,199.17
2023-06-08T10:57:16.738Z,201.80
2023-06-08T10:58:16.673Z,202.80
2023-06-08T10:59:16.608Z,202.14
2023-06-08T11:00:16.640Z,199.24
2023-06-08T11:01:16.699Z,199.02
2023-06-08T11:02:16.758Z,204.28
2023-06-08T11:03:16.850Z,199.63
2023-06-08T11:04:21.534Z,203.90
2023-06-08T11:05:18.041Z,204.01
2023-06-08T11:06:16.808Z,204.13
2023-06-08T11:07:20.897Z,205.16
2023-06-08T11:08:16.737Z,204.14
2023-06-08T11:09:16.737Z,204.32
2023-06-08T11:10:16.739Z,204.81
2023-06-08T11:11:16.757Z,200.70
2023-06-08T11:12:16.753Z,201.97
2023-06-08T11:13:16.714Z,201.83
2023-06-08T11:14:16.767Z,200.39
2023-06-08T11:15:16.743Z,202.08
2023-06-08T11:16:16.798Z,203.34
2023-06-08T11:17:16.682Z,202.58
2023-06-08T11:18:16.732Z,201.75
2023-06-08T11:19:16.678Z,200.56
2023-06-08T11:20:16.757Z,202.48
2023-06-08T11:21:16.648Z,201.72
2023-06-08T11:22:16.656Z,202.23
2023-06-08T11:23:16.664Z,197.70
2023-06-08T11:24:16.832Z,200.63
2023-06-08T11:25:16.665Z,198.51
2023-06-08T11:26:16.640Z,200.54
2023-06-08T11:27:16.680Z,201.46
2023-06-08T11:28:16.690Z,194.89
2023-06-08T11:29:16.671Z,196.09
2023-06-08T11:30:16.740Z,196.28
2023-06-08T11:31:16.786Z,196.79
2023-06-08T11:32:16.731Z,200.50
2023-06-08T11:33:16.825Z,198.54
2023-06-08T11:34:16.807Z,196.58
2023-06-08T11:35:16.861Z,198.82
2023-06-08T11:36:16.886Z,198.61
2023-06-08T11:37:16.922Z,199.51
2023-06-08T11:38:16.927Z,196.47
2023-06-08T11:39:16.985Z,194.67
2023-06-08T11:40:16.951Z,194.43
2023-06-08T11:41:17.029Z,198.20
2023-06-08T11:42:17.066Z,193.79
2023-06-08T11:43:17.144Z,196.43
2023-06-08T11:44:17.114Z,197.20
2023-06-08T11:45:17.175Z,193.37
2023-06-08T11:46:17.214Z,194.04
2023-06-08T11:47:17.220Z,194.12
2023-06-08T11:48:17.834Z,197.03
2023-06-08T11:49:17.301Z,198.29
2023-06-08T11:50:17.325Z,195.43
2023-06-08T11:51:17.321Z,186.54
2023-06-08T11:52:17.393Z,156.73
2023-06-08T11:53:17.449Z,142.72
2023-06-08T11:54:17.434Z,140.78
2023-06-08T11:55:17.467Z,130.91
2023-06-08T11:56:17.470Z,140.84
2023-06-08T11:57:17.535Z,138.90
2023-06-08T11:58:17.569Z,130.64
2023-06-08T11:59:17.579Z,120.21
2023-06-08T12:00:17.582Z,110.95
2023-06-08T12:01:17.613Z,98.15
2023-06-08T12:02:17.681Z,89.52
2023-06-08T12:03:17.743Z,92.68
2023-06-08T12:04:17.734Z,80.09
2023-06-08T12:05:17.732Z,68.09
2023-06-08T12:06:18.116Z,71.42
2023-06-08T12:07:17.796Z,63.76
2023-06-08T12:08:17.882Z,67.88
2023-06-08T12:09:17.876Z,58.41
2023-06-08T12:10:17.922Z,51.58
2023-06-08T12:11:18.121Z,45.06
2023-06-08T12:12:17.960Z,49.45
2023-06-08T12:13:18.012Z,35.02
2023-06-08T12:14:18.059Z,26.82
2023-06-08T12:15:18.103Z,25.23
2023-06-08T12:16:18.085Z,25.22
2023-06-08T12:17:18.290Z,32.70
2023-06-08T12:18:18.269Z,28.06
2023-06-08T12:19:18.247Z,27.88
2023-06-08T12:20:18.262Z,28.76
2023-06-08T12:21:18.299Z,25.00
2023-06-08T12:22:18.322Z,32.30
2023-06-08T12:23:19.886Z,29.90
2023-06-08T12:24:18.369Z,26.25
2023-06-08T12:25:18.299Z,31.79
2023-06-08T12:26:18.685Z,25.00
2023-06-08T12:27:18.331Z,35.19
2023-06-08T12:28:18.322Z,28.77
2023-06-08T12:29:19.496Z,27.82
2023-06-08T12:30:18.287Z,27.98
2023-06-08T12:31:18.312Z,28.16
2023-06-08T12:32:18.330Z,25.54
2023-06-08T12:33:18.311Z,20.77
2023-06-08T12:34:18.261Z,7.54
2023-06-08T12:35:19.675Z,25.00
2023-06-08T12:36:18.274Z,25.06
2023-06-08T12:37:18.302Z,25.16
2023-06-08T12:38:18.332Z,23.35
2023-06-08T12:39:18.485Z,12.87
2023-06-08T12:40:18.446Z,6.57
2023-06-08T12:41:18.454Z,27.32
2023-06-08T12:42:18.475Z,25.98
2023-06-08T12:43:18.495Z,27.45
2023-06-08T12:44:18.525Z,33.80
2023-06-08T12:45:18.630Z,26.40
2023-06-08T12:46:18.692Z,29.57
2023-06-08T12:47:18.677Z,25.00
2023-06-08T12:48:18.796Z,30.82
2023-06-08T12:49:18.746Z,25.00
2023-06-08T12:50:18.929Z,29.02
2023-06-08T12:51:18.789Z,27.77
2023-06-08T12:52:18.862Z,29.57
2023-06-08T12:53:18.856Z,27.45
2023-06-08T12:54:18.875Z,36.54
2023-06-08T12:55:18.887Z,32.69
2023-06-08T12:56:18.980Z,28.28
2023-06-08T12:57:18.970Z,24.52
2023-06-08T12:58:19.034Z,36.99
2023-06-08T12:59:19.092Z,26.94
2023-06-08T13:00:19.111Z,26.69
2023-06-08T13:01:19.340Z,29.18
2023-06-08T13:02:19.279Z,27.70
2023-06-08T13:03:19.389Z,37.07
2023-06-08T13:04:19.332Z,34.58
2023-06-08T13:05:19.258Z,26.79
2023-06-08T13:06:19.328Z,34.02
2023-06-08T13:07:19.378Z,34.58
2023-06-08T13:08:19.395Z,30.39
2023-06-08T13:09:19.449Z,30.80
2023-06-08T13:10:19.524Z,40.69
2023-06-08T13:11:19.535Z,47.32
2023-06-08T13:12:19.535Z,37.40
2023-06-08T13:13:19.619Z,34.40
2023-06-08T13:14:19.700Z,30.98
2023-06-08T13:15:19.667Z,33.68
2023-06-08T13:16:19.741Z,27.86
2023-06-08T13:17:19.883Z,33.46
2023-06-08T13:18:19.885Z,29.48
2023-06-08T13:19:19.821Z,26.33
2023-06-08T13:20:19.848Z,33.90
2023-06-08T13:21:19.931Z,30.35
2023-06-08T13:22:19.986Z,31.17
2023-06-08T13:23:19.990Z,42.74
2023-06-08T13:24:20.130Z,34.83
2023-06-08T13:25:20.187Z,29.10
2023-06-08T13:26:20.146Z,27.33
2023-06-08T13:27:20.176Z,32.19
2023-06-08T13:28:20.207Z,29.88
2023-06-08T13:29:20.226Z,31.13
2023-06-08T13:30:20.292Z,28.70
2023-06-08T13:31:20.348Z,25.26
2023-06-08T13:32:20.384Z,29.30
2023-06-08T13:33:20.544Z,25.00
2023-06-08T13:34:20.437Z,28.76
2023-06-08T13:35:20.547Z,33.80
2023-06-08T13:36:20.485Z,40.04
2023-06-08T13:37:20.540Z,48.79
2023-06-08T13:38:20.603Z,41.11
2023-06-08T13:39:20.652Z,46.96
2023-06-08T13:40:20.647Z,38.18
2023-06-08T13:41:20.682Z,39.36
2023-06-08T13:42:21.990Z,39.91
2023-06-08T13:43:20.851Z,37.32
2023-06-08T13:44:20.808Z,36.56
2023-06-08T13:45:20.850Z,38.39
2023-06-08T13:46:20.939Z,30.86
2023-06-08T13:47:20.911Z,31.49
2023-06-08T13:48:22.258Z,30.74
2023-06-08T13:49:21.017Z,31.34
2023-06-08T13:50:21.033Z,45.54
2023-06-08T13:51:21.044Z,40.03
2023-06-08T13:52:21.016Z,38.63
2023-06-08T13:53:21.073Z,45.97
2023-06-08T13:54:21.084Z,49.82
2023-06-08T13:55:21.108Z,48.46
2023-06-08T13:56:21.069Z,61.74
2023-06-08T13:57:21.129Z,73.70
2023-06-08T13:58:21.117Z,81.12
2023-06-08T13:59:21.157Z,93.50
2023-06-08T14:00:21.197Z,98.18
2023-06-08T14:01:21.255Z,103.93
2023-06-08T14:02:21.270Z,116.07
2023-06-08T14:03:21.365Z,117.79
2023-06-08T14:04:21.270Z,120.00
2023-06-08T14:05:21.382Z,126.42
2023-06-08T14:06:21.288Z,134.45
2023-06-08T14:07:21.316Z,135.86
2023-06-08T14:08:21.359Z,143.70
2023-06-08T14:09:21.354Z,156.45
2023-06-08T14:10:21.382Z,155.98
2023-06-08T14:11:21.382Z,155.71
2023-06-08T14:12:21.407Z,164.55
2023-06-08T14:13:21.438Z,174.58
2023-06-08T14:14:21.477Z,179.29
2023-06-08T14:15:21.500Z,189.62
2023-06-08T14:16:21.574Z,186.19
2023-06-08T14:17:21.566Z,194.67
2023-06-08T14:18:21.556Z,198.75
2023-06-08T14:19:21.575Z,198.20
2023-06-08T14:20:21.597Z,202.66
2023-06-08T14:21:21.644Z,202.57
2023-06-08T14:22:21.611Z,203.70
2023-06-08T14:23:21.612Z,208.72
2023-06-08T14:24:21.774Z,210.72
2023-06-08T14:25:21.723Z,219.61
2023-06-08T14:26:21.690Z,220.77
2023-06-08T14:27:21.704Z,224.00
2023-06-08T14:28:21.775Z,224.77
2023-06-08T14:29:21.946Z,227.90
2023-06-08T14:30:22.740Z,236.51
2023-06-08T14:31:21.820Z,238.29
2023-06-08T14:32:21.933Z,238.00
2023-06-08T14:33:21.862Z,241.00
2023-06-08T14:34:23.692Z,243.10
2023-06-08T14:35:21.897Z,244.06
2023-06-08T14:36:24.719Z,249.89
2023-06-08T14:37:23.718Z,246.07
2023-06-08T14:38:22.725Z,246.34
2023-06-08T14:39:21.887Z,246.83
2023-06-08T14:40:21.911Z,249.07
2023-06-08T14:41:21.919Z,250.27
2023-06-08T14:42:22.734Z,246.73
2023-06-08T14:43:21.862Z,247.83
2023-06-08T14:44:21.855Z,251.15
2023-06-08T14:45:22.281Z,257.76
2023-06-08T14:46:21.825Z,262.02
2023-06-08T14:47:21.864Z,249.44
2023-06-08T14:48:21.945Z,247.10
2023-06-08T14:49:21.837Z,243.51
2023-06-08T14:50:21.884Z,248.78
2023-06-08T14:51:36.936Z,249.24
2023-06-08T14:52:21.811Z,249.48
2023-06-08T14:53:24.707Z,250.04
2023-06-08T14:54:21.753Z,252.33
2023-06-08T14:55:21.847Z,252.72
2023-06-08T14:56:21.797Z,255.45
2023-06-08T14:57:21.797Z,246.55
2023-06-08T14:58:21.799Z,248.07
2023-06-08T14:59:21.762Z,247.73
2023-06-08T15:00:21.773Z,248.68
2023-06-08T15:01:21.854Z,245.27
2023-06-08T15:02:21.760Z,249.11
2023-06-08T15:03:21.771Z,245.94
2023-06-08T15:04:21.805Z,247.36
2023-06-08T15:05:21.746Z,246.83
2023-06-08T15:06:21.851Z,247.25
2023-06-08T15:07:21.716Z,246.90
2023-06-08T15:08:21.780Z,248.79
2023-06-08T15:09:21.695Z,248.34
2023-06-08T15:10:21.681Z,246.43
2023-06-08T15:11:21.733Z,246.86
2023-06-08T15:12:21.709Z,247.30
2023-06-08T15:13:22.199Z,247.11
2023-06-08T15:14:21.649Z,248.03
2023-06-08T15:15:21.660Z,247.62
2023-06-08T15:16:21.689Z,249.74
2023-06-08T15:17:22.392Z,249.88
2023-06-08T15:18:22.275Z,249.80
2023-06-08T15:19:21.717Z,250.08
2023-06-08T15:20:21.756Z,250.30
2023-06-08T15:21:21.850Z,249.80
2023-06-08T15:22:21.771Z,251.28
2023-06-08T15:23:21.799Z,249.89
2023-06-08T15:24:21.794Z,250.18
2023-06-08T15:25:21.713Z,250.03
2023-06-08T15:26:21.772Z,251.84
2023-06-08T15:27:21.727Z,250.46
2023-06-08T15:28:21.734Z,248.16
2023-06-08T15:29:22.215Z,245.54
2023-06-08T15:30:22.213Z,247.63
2023-06-08T15:31:21.703Z,248.44
2023-06-08T15:32:21.752Z,247.26
2023-06-08T15:33:21.723Z,250.00
2023-06-08T15:34:21.738Z,247.85
2023-06-08T15:35:21.665Z,246.00
2023-06-08T15:36:21.691Z,248.38
2023-06-08T15:37:21.715Z,247.99
2023-06-08T15:38:22.762Z,247.94
2023-06-08T15:39:21.699Z,247.83
2023-06-08T15:40:21.639Z,245.59
2023-06-08T15:41:21.732Z,247.92
2023-06-08T15:42:21.630Z,245.14
2023-06-08T15:43:21.639Z,248.41
2023-06-08T15:44:21.597Z,245.00
2023-06-08T15:45:21.660Z,246.24
2023-06-08T15:46:21.651Z,245.51
2023-06-08T15:47:21.582Z,248.56
2023-06-08T15:48:21.643Z,250.00
2023-06-08T15:49:21.580Z,246.11
2023-06-08T15:50:21.627Z,246.41
2023-06-08T15:51:21.649Z,248.28
2023-06-08T15:52:21.589Z,246.08
2023-06-08T15:53:21.629Z,250.00
2023-06-08T15:54:22.227Z,247.07
2023-06-08T15:55:21.669Z,246.00
2023-06-08T15:56:22.290Z,246.36
2023-06-08T15:57:21.648Z,244.88
2023-06-08T15:58:21.721Z,247.39
2023-06-08T15:59:21.766Z,246.80
2023-06-08T16:00:21.701Z,247.56
2023-06-08T16:01:21.770Z,247.81
2023-06-08T16:02:21.687Z,247.81
2023-06-08T16:03:22.239Z,247.80
2023-06-08T16:04:21.706Z,247.79
2023-06-08T16:05:21.659Z,246.62
2023-06-08T16:06:21.656Z,247.63
2023-06-08T16:07:22.246Z,246.38
2023-06-08T16:08:21.831Z,246.60
2023-06-08T16:09:21.902Z,246.97
2023-06-08T16:10:21.841Z,247.35
2023-06-08T16:11:23.834Z,248.80
2023-06-08T16:12:21.985Z,248.55
2023-06-08T16:13:22.008Z,247.10
2023-06-08T16:14:21.955Z,245.58
2023-06-08T16:15:22.788Z,244.73
2023-06-08T16:16:22.026Z,245.55
2023-06-08T16:17:22.071Z,245.46
2023-06-08T16:18:22.075Z,245.73
2023-06-08T16:19:22.011Z,245.74
2023-06-08T16:20:21.992Z,246.71
2023-06-08T16:21:21.985Z,246.97
2023-06-08T16:22:21.986Z,247.89
2023-06-08T16:23:21.997Z,247.87
2023-06-08T16:24:22.214Z,246.97
2023-06-08T16:25:21.999Z,246.23
2023-06-08T16:26:21.924Z,246.08
2023-06-08T16:27:22.829Z,246.75
2023-06-08T16:28:21.936Z,246.18
2023-06-08T16:29:21.917Z,247.48
2023-06-08T16:30:21.973Z,246.75
2023-06-08T16:31:21.963Z,246.91
2023-06-08T16:32:21.976Z,247.02
2023-06-08T16:33:21.909Z,247.33
2023-06-08T16:34:21.900Z,246.95
2023-06-08T16:35:21.892Z,247.51
2023-06-08T16:36:22.723Z,247.67
2023-06-08T16:37:21.948Z,248.12
2023-06-08T16:38:21.890Z,247.61
2023-06-08T16:39:23.787Z,248.60
2023-06-08T16:40:21.867Z,245.92
2023-06-08T16:41:21.890Z,247.32
2023-06-08T16:42:21.851Z,247.48
2023-06-08T16:43:21.865Z,247.70
2023-06-08T16:44:21.831Z,248.26
2023-06-08T16:45:21.846Z,247.61
2023-06-08T16:46:21.887Z,247.51
2023-06-08T16:47:21.974Z,247.67
2023-06-08T16:48:21.827Z,247.74
2023-06-08T16:49:21.889Z,247.75
2023-06-08T16:50:21.786Z,248.11
2023-06-08T16:51:21.858Z,249.33
2023-06-08T16:52:21.785Z,249.32
2023-06-08T16:53:21.801Z,253.07
2023-06-08T16:54:22.783Z,247.65
2023-06-08T16:55:22.722Z,248.30
2023-06-08T16:56:21.758Z,249.07
2023-06-08T16:57:21.856Z,249.92
2023-06-08T16:58:23.248Z,248.93
2023-06-08T16:59:21.759Z,248.54
2023-06-08T17:00:30.226Z,247.39
